Time;durP1;ratioP1;P1;durP2;ratioP2;P2;SDS_P1;SDS_P2;PMS_P1;PMS_P2;Temp;Humidity;BMP_temperature;BMP_pressure;BME280_temperature;BME280_humidity;BME280_pressure;Samples;Min_cycle;Max_cycle;Signal;HPM_P1;HPM_P2
2023/10/14 00:01:07;;;;;;;;;;;20.20;1.00;;;;;;4918235;29;20029;-52
2023/10/14 00:03:34;;;;;;;;;;;20.20;1.00;;;;;;4918219;29;20412;-51
2023/10/14 00:06:06;;;;;;;;;;;20.20;1.00;;;;;;4918376;29;19966;-49
2023/10/14 00:08:39;;;;;;;;;;;20.30;1.00;;;;;;4918165;29;19931;-49
2023/10/14 00:11:09;;;;;;;;;;;20.20;1.00;;;;;;4917912;29;19931;-51
2023/10/14 00:13:41;;;;;;;;;;;20.20;1.00;;;;;;4917932;29;19927;-51
2023/10/14 00:16:13;;;;;;;;;;;20.20;1.00;;;;;;4918020;29;19927;-53
2023/10/14 00:18:44;;;;;;;;;;;20.20;1.00;;;;;;4918067;29;20030;-50
2023/10/14 00:21:12;;;;;;;;;;;20.20;1.00;;;;;;4917656;29;19927;-51
2023/10/14 00:23:39;;;;;;;;;;;20.20;1.00;;;;;;4917909;29;20022;-49
2023/10/14 00:26:16;;;;;;;;;;;20.20;1.00;;;;;;4918360;29;20359;-49
2023/10/14 00:28:54;;;;;;;;;;;20.20;1.00;;;;;;4900810;29;20708;-50
2023/10/14 00:31:24;;;;;;;;;;;20.20;1.00;;;;;;4900619;29;20057;-52
2023/10/14 00:33:54;;;;;;;;;;;20.20;1.00;;;;;;4917585;29;19938;-49
2023/10/14 00:36:21;;;;;;;;;;;20.20;1.00;;;;;;4917716;29;20490;-51
2023/10/14 00:38:55;;;;;;;;;;;20.20;1.00;;;;;;4917694;29;20014;-49
2023/10/14 00:41:26;;;;;;;;;;;20.20;1.00;;;;;;4900526;29;20450;-49
2023/10/14 00:43:54;;;;;;;;;;;20.10;1.00;;;;;;4905732;29;20345;-51
2023/10/14 00:46:30;;;;;;;;;;;20.10;1.00;;;;;;4936534;29;19934;-50
2023/10/14 00:49:02;;;;;;;;;;;20.10;1.00;;;;;;4924739;29;19927;-49
2023/10/14 00:51:33;;;;;;;;;;;20.10;1.00;;;;;;4920777;29;20492;-50
2023/10/14 00:54:04;;;;;;;;;;;20.10;1.00;;;;;;4918951;29;19931;-48
2023/10/14 00:56:31;;;;;;;;;;;20.10;1.00;;;;;;4936233;29;20021;-48
2023/10/14 00:59:02;;;;;;;;;;;20.10;1.00;;;;;;4907833;29;20018;-49
2023/10/14 01:01:32;;;;;;;;;;;20.10;1.00;;;;;;4899323;29;19962;-50
2023/10/14 01:04:17;;;;;;;;;;;20.10;1.00;;;;;;4917203;29;19959;-48
2023/10/14 01:07:12;;;;;;;;;;;20.10;1.00;;;;;;4900048;29;20022;-52
2023/10/14 01:12:37;;;;;;;;;;;20.10;1.00;;;;;;4908028;29;19953;-49
2023/10/14 01:15:13;;;;;;;;;;;20.10;1.00;;;;;;4917132;29;19931;-48
2023/10/14 01:17:42;;;;;;;;;;;20.00;1.00;;;;;;4917152;29;20026;-48
2023/10/14 01:22:43;;;;;;;;;;;20.00;1.00;;;;;;4916835;29;19927;-50
2023/10/14 01:25:14;;;;;;;;;;;20.00;1.00;;;;;;4899825;29;19934;-48
2023/10/14 01:27:45;;;;;;;;;;;20.00;1.00;;;;;;4899766;29;19934;-52
2023/10/14 01:30:20;;;;;;;;;;;20.00;1.00;;;;;;4899656;29;19950;-50
2023/10/14 01:37:57;;;;;;;;;;;20.00;1.00;;;;;;4916733;29;20390;-48
2023/10/14 01:40:27;;;;;;;;;;;20.00;1.00;;;;;;4899628;29;19974;-48
2023/10/14 01:42:56;;;;;;;;;;;19.90;1.00;;;;;;4899425;29;19931;-50
2023/10/14 01:45:27;;;;;;;;;;;20.00;1.00;;;;;;4916560;29;20461;-48
2023/10/14 01:50:44;;;;;;;;;;;19.90;1.00;;;;;;4899497;29;20013;-48
2023/10/14 01:53:18;;;;;;;;;;;19.90;1.00;;;;;;4928096;29;19954;-48
2023/10/14 01:55:45;;;;;;;;;;;19.90;1.00;;;;;;4918249;29;19931;-49
2023/10/14 01:58:32;;;;;;;;;;;19.90;1.00;;;;;;4918468;29;19927;-49
2023/10/14 02:03:46;;;;;;;;;;;19.90;1.00;;;;;;4935445;29;19934;-51
2023/10/14 02:06:20;;;;;;;;;;;19.90;1.00;;;;;;4918269;29;19969;-49
2023/10/14 02:08:48;;;;;;;;;;;19.90;1.00;;;;;;4918121;29;20373;-50
2023/10/14 02:11:16;;;;;;;;;;;19.90;1.00;;;;;;4935032;29;19934;-49
2023/10/14 02:13:43;;;;;;;;;;;19.90;1.00;;;;;;4921425;29;19934;-49
2023/10/14 02:16:09;;;;;;;;;;;19.90;1.00;;;;;;4927994;29;19934;-55
2023/10/14 02:18:37;;;;;;;;;;;19.90;1.00;;;;;;4903072;29;20281;-51
2023/10/14 02:21:05;;;;;;;;;;;19.80;1.00;;;;;;4902941;29;19934;-48
2023/10/14 02:23:45;;;;;;;;;;;19.80;1.00;;;;;;4919973;29;20397;-48
2023/10/14 02:26:22;;;;;;;;;;;19.80;1.00;;;;;;4914382;29;19934;-50
2023/10/14 02:28:52;;;;;;;;;;;19.80;1.00;;;;;;4938790;29;19927;-51
2023/10/14 02:31:29;;;;;;;;;;;19.80;1.00;;;;;;4938730;29;19927;-48
2023/10/14 02:33:56;;;;;;;;;;;19.80;1.00;;;;;;4938673;29;20292;-53
2023/10/14 02:36:29;;;;;;;;;;;19.80;1.00;;;;;;4921812;29;20388;-53
2023/10/14 02:38:56;;;;;;;;;;;19.80;1.00;;;;;;4938981;29;20289;-49
2023/10/14 02:41:27;;;;;;;;;;;19.70;1.00;;;;;;4938706;29;19926;-53
2023/10/14 02:44:18;;;;;;;;;;;19.80;1.00;;;;;;4921722;29;20030;-52
2023/10/14 02:46:47;;;;;;;;;;;19.70;1.00;;;;;;4921454;29;20408;-51
2023/10/14 02:49:14;;;;;;;;;;;19.70;1.00;;;;;;4921430;29;20439;-48
2023/10/14 02:51:42;;;;;;;;;;;19.70;1.00;;;;;;4921328;29;19927;-50
2023/10/14 02:54:26;;;;;;;;;;;19.70;1.00;;;;;;4938295;29;20022;-49
2023/10/14 02:59:21;;;;;;;;;;;19.70;1.00;;;;;;4921277;29;19994;-50
2023/10/14 03:02:10;;;;;;;;;;;19.70;1.00;;;;;;4938255;29;20013;-50
2023/10/14 03:04:44;;;;;;;;;;;19.70;1.00;;;;;;4938408;29;20021;-50
2023/10/14 03:07:15;;;;;;;;;;;19.70;1.00;;;;;;4921056;29;20400;-48
2023/10/14 03:09:42;;;;;;;;;;;19.70;1.00;;;;;;4921132;29;19930;-49
2023/10/14 03:12:09;;;;;;;;;;;19.70;1.00;;;;;;4937918;29;20021;-49
2023/10/14 03:14:40;;;;;;;;;;;19.70;1.00;;;;;;4938137;29;20361;-48
2023/10/14 03:17:09;;;;;;;;;;;19.60;1.00;;;;;;4938158;29;19949;-48
2023/10/14 03:19:36;;;;;;;;;;;19.60;1.00;;;;;;4938070;29;19927;-49
2023/10/14 03:22:06;;;;;;;;;;;19.60;1.00;;;;;;4937803;29;19927;-50
2023/10/14 03:24:38;;;;;;;;;;;19.60;1.00;;;;;;4937245;29;19926;-50
2023/10/14 03:27:07;;;;;;;;;;;19.60;1.00;;;;;;4918862;29;19931;-48
2023/10/14 03:29:34;;;;;;;;;;;19.60;1.00;;;;;;4932509;29;20378;-48
2023/10/14 03:32:02;;;;;;;;;;;19.60;1.00;;;;;;4937625;29;19927;-48
2023/10/14 03:34:30;;;;;;;;;;;19.60;1.00;;;;;;4937808;29;20288;-49
2023/10/14 03:37:00;;;;;;;;;;;19.60;1.00;;;;;;4937880;29;19927;-48
2023/10/14 03:39:46;;;;;;;;;;;19.60;1.00;;;;;;4937561;29;19927;-49
2023/10/14 03:42:16;;;;;;;;;;;19.60;1.00;;;;;;4937523;29;19941;-49
2023/10/14 03:44:43;;;;;;;;;;;19.60;1.00;;;;;;4937598;29;19927;-49
2023/10/14 03:47:19;;;;;;;;;;;19.50;1.00;;;;;;4937580;29;19950;-50
2023/10/14 03:49:55;;;;;;;;;;;19.50;1.00;;;;;;4937493;29;20328;-48
2023/10/14 03:52:23;;;;;;;;;;;19.50;1.00;;;;;;4937458;29;20005;-48
2023/10/14 03:54:50;;;;;;;;;;;19.50;1.00;;;;;;4937397;29;20058;-49
2023/10/14 03:57:19;;;;;;;;;;;19.50;1.00;;;;;;4937370;29;19927;-49
2023/10/14 03:59:47;;;;;;;;;;;19.50;1.00;;;;;;4937366;29;20030;-48
2023/10/14 04:02:24;;;;;;;;;;;19.50;1.00;;;;;;4937223;29;19926;-48
2023/10/14 04:05:01;;;;;;;;;;;19.50;1.00;;;;;;4937413;29;20444;-48
2023/10/14 04:07:28;;;;;;;;;;;19.50;1.00;;;;;;4933039;29;20351;-50
2023/10/14 04:10:04;;;;;;;;;;;19.50;1.00;;;;;;4918196;29;19931;-49
2023/10/14 04:12:37;;;;;;;;;;;19.50;1.00;;;;;;4930606;29;20381;-48
2023/10/14 04:15:06;;;;;;;;;;;19.40;1.00;;;;;;4937059;29;19943;-49
2023/10/14 04:17:33;;;;;;;;;;;19.40;1.00;;;;;;4937025;29;19927;-49
2023/10/14 04:20:22;;;;;;;;;;;19.40;1.00;;;;;;4936794;29;19926;-48
2023/10/14 04:22:47;;;;;;;;;;;19.40;1.00;;;;;;4936950;29;20320;-50
2023/10/14 04:25:19;;;;;;;;;;;19.40;1.00;;;;;;4936900;29;20297;-51
2023/10/14 04:30:32;;;;;;;;;;;19.40;1.00;;;;;;4936607;29;19927;-49
2023/10/14 04:35:33;;;;;;;;;;;19.40;1.00;;;;;;4936604;29;20029;-49
2023/10/14 04:38:13;;;;;;;;;;;19.30;1.00;;;;;;4936692;29;19948;-48
2023/10/14 04:40:41;;;;;;;;;;;19.30;1.00;;;;;;4936408;29;19927;-49
2023/10/14 04:43:49;;;;;;;;;;;19.30;1.00;;;;;;4936385;29;20440;-48
2023/10/14 04:48:58;;;;;;;;;;;19.30;1.00;;;;;;4936661;29;19927;-48
2023/10/14 04:51:36;;;;;;;;;;;19.30;1.00;;;;;;4917391;29;19931;-48
2023/10/14 04:54:09;;;;;;;;;;;19.30;1.00;;;;;;4900182;29;19930;-50
2023/10/14 04:56:35;;;;;;;;;;;19.30;1.00;;;;;;4917327;29;19938;-48
2023/10/14 04:59:05;;;;;;;;;;;19.30;1.00;;;;;;4917249;29;19983;-50
2023/10/14 05:01:32;;;;;;;;;;;19.30;1.00;;;;;;4916908;29;20349;-48
2023/10/14 05:03:59;;;;;;;;;;;19.30;1.00;;;;;;4917358;29;20041;-48
2023/10/14 05:06:29;;;;;;;;;;;19.30;1.00;;;;;;4917247;29;19997;-49
2023/10/14 05:08:56;;;;;;;;;;;19.30;1.00;;;;;;4917096;29;19931;-48
2023/10/14 05:11:25;;;;;;;;;;;19.30;1.00;;;;;;4916694;29;19982;-48
2023/10/14 05:14:14;;;;;;;;;;;19.20;1.00;;;;;;4917148;29;19927;-52
2023/10/14 05:16:55;;;;;;;;;;;19.20;1.00;;;;;;4917150;29;19931;-51
2023/10/14 05:19:30;;;;;;;;;;;19.20;1.00;;;;;;4916866;29;19927;-50
2023/10/14 05:22:03;;;;;;;;;;;19.20;1.00;;;;;;4916836;29;20338;-47
2023/10/14 05:24:31;;;;;;;;;;;19.20;1.00;;;;;;4928285;29;19933;-48
2023/10/14 05:27:01;;;;;;;;;;;19.20;1.00;;;;;;4935883;29;19927;-50
2023/10/14 05:29:28;;;;;;;;;;;19.20;1.00;;;;;;4935709;29;20385;-48
2023/10/14 05:32:15;;;;;;;;;;;19.20;1.00;;;;;;4935608;29;20034;-50
2023/10/14 05:34:50;;;;;;;;;;;19.20;1.00;;;;;;4935764;29;19958;-51
2023/10/14 05:37:17;;;;;;;;;;;19.20;1.00;;;;;;4935458;29;20013;-52
2023/10/14 05:39:43;;;;;;;;;;;19.20;1.00;;;;;;4935573;29;19959;-48
2023/10/14 05:42:16;;;;;;;;;;;19.10;1.00;;;;;;4935491;29;19934;-48
2023/10/14 05:44:54;;;;;;;;;;;19.10;1.00;;;;;;4935550;29;20369;-49
2023/10/14 05:47:20;;;;;;;;;;;19.10;1.00;;;;;;4935232;29;20389;-50
2023/10/14 05:49:47;;;;;;;;;;;19.10;1.00;;;;;;4935477;29;20021;-50
2023/10/14 05:52:14;;;;;;;;;;;19.10;1.00;;;;;;4935318;29;19926;-48
2023/10/14 05:54:47;;;;;;;;;;;19.10;1.00;;;;;;4935498;29;20484;-48
2023/10/14 05:57:16;;;;;;;;;;;19.10;1.00;;;;;;4935463;29;19974;-48
2023/10/14 05:59:43;;;;;;;;;;;19.10;1.00;;;;;;4935326;29;19934;-49
2023/10/14 06:02:13;;;;;;;;;;;19.10;1.00;;;;;;4935338;29;19951;-48
2023/10/14 06:04:39;;;;;;;;;;;19.10;1.00;;;;;;4935411;29;19943;-50
2023/10/14 06:07:08;;;;;;;;;;;19.10;1.00;;;;;;4934261;29;20018;-49
2023/10/14 06:09:36;;;;;;;;;;;19.10;1.00;;;;;;4935032;29;19938;-49
2023/10/14 06:12:12;;;;;;;;;;;19.10;1.00;;;;;;4935060;29;19933;-49
2023/10/14 06:14:41;;;;;;;;;;;19.00;1.00;;;;;;4934628;29;19958;-48
2023/10/14 06:17:07;;;;;;;;;;;19.00;1.00;;;;;;4935289;29;19926;-50
2023/10/14 06:19:36;;;;;;;;;;;19.00;1.00;;;;;;4935172;29;19986;-49
2023/10/14 06:22:03;;;;;;;;;;;19.00;1.00;;;;;;4934931;29;19927;-48
2023/10/14 06:24:30;;;;;;;;;;;19.00;1.00;;;;;;4935105;29;20405;-48
2023/10/14 06:27:08;;;;;;;;;;;19.00;1.00;;;;;;4935318;29;19966;-50
2023/10/14 06:29:36;;;;;;;;;;;19.00;1.00;;;;;;4935026;29;20349;-48
2023/10/14 06:32:04;;;;;;;;;;;19.00;1.00;;;;;;4934906;29;19927;-48
2023/10/14 06:34:47;;;;;;;;;;;19.00;1.00;;;;;;4935310;29;20299;-48
2023/10/14 06:37:14;;;;;;;;;;;19.00;1.00;;;;;;4935063;29;19985;-48
2023/10/14 06:39:41;;;;;;;;;;;19.00;1.00;;;;;;4934978;29;19927;-48
2023/10/14 06:42:08;;;;;;;;;;;18.90;1.00;;;;;;4934867;29;19933;-49
2023/10/14 06:44:36;;;;;;;;;;;18.90;1.00;;;;;;4917826;29;19957;-48
2023/10/14 06:47:03;;;;;;;;;;;18.90;1.00;;;;;;4935102;29;19962;-48
2023/10/14 06:49:32;;;;;;;;;;;18.90;1.00;;;;;;4934853;29;19955;-48
2023/10/14 06:51:59;;;;;;;;;;;18.90;1.00;;;;;;4932185;29;19933;-49
2023/10/14 06:54:28;;;;;;;;;;;18.90;1.00;;;;;;4932309;29;20012;-48
2023/10/14 06:56:55;;;;;;;;;;;18.90;1.00;;;;;;4929032;29;19928;-49
2023/10/14 06:59:22;;;;;;;;;;;18.90;1.00;;;;;;4934389;29;20382;-48
2023/10/14 07:01:49;;;;;;;;;;;18.80;1.00;;;;;;4933086;29;19934;-48
2023/10/14 07:04:16;;;;;;;;;;;18.80;1.00;;;;;;4919066;29;20059;-49
2023/10/14 07:06:49;;;;;;;;;;;18.80;1.00;;;;;;4926330;29;19983;-49
2023/10/14 07:09:19;;;;;;;;;;;18.80;1.00;;;;;;4920469;29;19982;-49
2023/10/14 07:11:47;;;;;;;;;;;18.80;1.00;;;;;;4929061;29;20341;-47
2023/10/14 07:14:13;;;;;;;;;;;18.80;1.00;;;;;;4934826;29;20284;-48
2023/10/14 07:16:40;;;;;;;;;;;18.70;1.00;;;;;;4925792;29;19927;-48
2023/10/14 07:19:07;;;;;;;;;;;18.70;1.00;;;;;;4931099;29;19931;-49
2023/10/14 07:21:34;;;;;;;;;;;18.70;1.00;;;;;;4930855;29;19927;-47
2023/10/14 07:24:05;;;;;;;;;;;18.70;1.00;;;;;;4927876;29;19927;-49
2023/10/14 07:26:36;;;;;;;;;;;18.70;1.00;;;;;;4929585;29;19934;-47
2023/10/14 07:29:05;;;;;;;;;;;18.60;1.00;;;;;;4934619;29;20360;-49
2023/10/14 07:31:32;;;;;;;;;;;18.60;1.00;;;;;;4925687;29;20353;-51
2023/10/14 07:34:02;;;;;;;;;;;18.60;1.00;;;;;;4933962;29;20277;-50
2023/10/14 07:36:30;;;;;;;;;;;18.60;1.00;;;;;;4931659;29;20348;-47
2023/10/14 07:39:02;;;;;;;;;;;18.60;1.00;;;;;;4920389;29;19927;-48
2023/10/14 07:41:29;;;;;;;;;;;18.60;1.00;;;;;;4927885;29;19951;-48
2023/10/14 07:43:56;;;;;;;;;;;18.60;1.00;;;;;;4928970;29;19935;-47
2023/10/14 07:46:23;;;;;;;;;;;18.60;1.00;;;;;;4933361;29;19927;-47
2023/10/14 07:48:53;;;;;;;;;;;18.60;1.00;;;;;;4922921;29;19930;-49
2023/10/14 07:51:19;;;;;;;;;;;18.60;1.00;;;;;;4931554;29;19926;-48
2023/10/14 07:53:56;;;;;;;;;;;18.60;1.00;;;;;;4927130;29;19935;-49
2023/10/14 07:56:23;;;;;;;;;;;18.60;1.00;;;;;;4924321;29;19935;-48
2023/10/14 07:58:52;;;;;;;;;;;18.60;1.00;;;;;;4930367;29;19970;-48
2023/10/14 08:01:22;;;;;;;;;;;18.60;1.00;;;;;;4934041;29;19982;-52
2023/10/14 08:03:50;;;;;;;;;;;18.60;1.00;;;;;;4911584;29;19950;-49
2023/10/14 08:06:20;;;;;;;;;;;18.60;1.00;;;;;;4926929;29;20393;-48
2023/10/14 08:08:50;;;;;;;;;;;18.60;1.00;;;;;;4933016;29;19937;-48
2023/10/14 08:11:17;;;;;;;;;;;18.50;1.00;;;;;;4928467;29;20305;-49
2023/10/14 08:13:44;;;;;;;;;;;18.50;1.00;;;;;;4923659;29;19931;-48
2023/10/14 08:16:11;;;;;;;;;;;18.50;1.00;;;;;;4925843;29;19927;-50
2023/10/14 08:18:41;;;;;;;;;;;18.50;1.00;;;;;;4933512;29;19965;-50
2023/10/14 08:21:11;;;;;;;;;;;18.50;1.00;;;;;;4922308;29;19927;-50
2023/10/14 08:23:38;;;;;;;;;;;18.50;1.00;;;;;;4926213;29;19982;-48
2023/10/14 08:26:12;;;;;;;;;;;18.50;1.00;;;;;;4921751;29;19943;-50
2023/10/14 08:28:40;;;;;;;;;;;18.50;1.00;;;;;;4924932;29;19974;-48
2023/10/14 08:31:08;;;;;;;;;;;18.50;1.00;;;;;;4920953;29;19958;-49
2023/10/14 08:33:36;;;;;;;;;;;18.50;1.00;;;;;;4923018;29;19934;-50
2023/10/14 08:36:03;;;;;;;;;;;18.50;1.00;;;;;;4920048;29;19959;-48
2023/10/14 08:38:30;;;;;;;;;;;18.50;1.00;;;;;;4922722;29;19931;-53
2023/10/14 08:40:59;;;;;;;;;;;18.50;1.00;;;;;;4925932;29;20444;-50
2023/10/14 08:43:28;;;;;;;;;;;18.50;1.00;;;;;;4925029;29;19927;-50
2023/10/14 08:45:56;;;;;;;;;;;18.50;1.00;;;;;;4936095;29;19970;-50
2023/10/14 08:48:26;;;;;;;;;;;18.50;1.00;;;;;;4931981;29;19931;-51
2023/10/14 08:50:57;;;;;;;;;;;18.50;1.00;;;;;;4911209;29;19927;-50
2023/10/14 08:53:24;;;;;;;;;;;18.50;1.00;;;;;;4925708;29;19982;-50
2023/10/14 08:55:52;;;;;;;;;;;18.50;1.00;;;;;;4929600;29;19927;-50
2023/10/14 08:58:21;;;;;;;;;;;18.50;1.00;;;;;;4931104;29;19930;-49
2023/10/14 09:00:50;;;;;;;;;;;18.40;1.00;;;;;;4931898;29;19974;-51
2023/10/14 09:03:17;;;;;;;;;;;18.40;1.00;;;;;;4930025;29;20429;-49
2023/10/14 09:05:44;;;;;;;;;;;18.40;1.00;;;;;;4929825;29;20278;-55
2023/10/14 09:08:12;;;;;;;;;;;18.40;1.00;;;;;;4929812;29;20437;-49
2023/10/14 09:10:39;;;;;;;;;;;18.50;1.00;;;;;;4930480;29;19950;-47
2023/10/14 09:13:13;;;;;;;;;;;18.40;1.00;;;;;;4934847;29;19938;-48
2023/10/14 09:15:41;;;;;;;;;;;18.40;1.00;;;;;;4923323;29;19931;-49
2023/10/14 09:18:14;;;;;;;;;;;18.40;1.00;;;;;;4933627;29;19931;-48
2023/10/14 09:20:41;;;;;;;;;;;18.40;1.00;;;;;;4930575;29;19998;-52
2023/10/14 09:23:33;;;;;;;;;;;18.40;1.00;;;;;;4926070;29;20026;-50
2023/10/14 09:26:01;;;;;;;;;;;18.40;1.00;;;;;;4925184;29;19972;-48
2023/10/14 09:28:34;;;;;;;;;;;18.40;1.00;;;;;;4932205;29;19927;-48
2023/10/14 09:31:03;;;;;;;;;;;18.40;1.00;;;;;;4931004;29;19934;-47
2023/10/14 09:33:31;;;;;;;;;;;18.40;1.00;;;;;;4913018;29;19927;-50
2023/10/14 09:35:59;;;;;;;;;;;18.40;1.00;;;;;;4927454;29;19950;-49
2023/10/14 09:38:27;;;;;;;;;;;18.40;1.00;;;;;;4927472;29;19942;-47
2023/10/14 09:40:55;;;;;;;;;;;18.40;1.00;;;;;;4927392;29;20357;-51
2023/10/14 09:43:25;;;;;;;;;;;18.40;1.00;;;;;;4923849;29;19927;-52
2023/10/14 09:45:56;;;;;;;;;;;18.40;1.00;;;;;;4927804;29;19926;-50
2023/10/14 09:48:24;;;;;;;;;;;18.40;1.00;;;;;;4931282;29;19958;-48
2023/10/14 09:50:54;;;;;;;;;;;18.40;1.00;;;;;;4908842;29;20636;-48
2023/10/14 09:53:26;;;;;;;;;;;18.40;1.00;;;;;;4934930;29;19954;-48
2023/10/14 09:55:57;;;;;;;;;;;18.40;1.00;;;;;;4922099;29;20370;-48
2023/10/14 09:58:26;;;;;;;;;;;18.40;1.00;;;;;;4925814;29;19926;-49
2023/10/14 10:00:53;;;;;;;;;;;18.40;1.00;;;;;;4924331;29;20318;-50
2023/10/14 10:03:21;;;;;;;;;;;18.40;1.00;;;;;;4927511;29;20341;-48
2023/10/14 10:06:14;;;;;;;;;;;18.40;1.00;;;;;;4922890;29;19935;-48
2023/10/14 10:09:08;;;;;;;;;;;18.40;1.00;;;;;;4889209;29;19930;-50
2023/10/14 10:11:36;;;;;;;;;;;18.40;1.00;;;;;;4930277;29;19935;-49
2023/10/14 10:14:05;;;;;;;;;;;18.40;1.00;;;;;;4931095;29;19931;-48
2023/10/14 10:16:33;;;;;;;;;;;18.40;1.00;;;;;;4931179;29;20022;-49
2023/10/14 10:19:01;;;;;;;;;;;18.40;1.00;;;;;;4931596;29;20393;-53
2023/10/14 10:21:31;;;;;;;;;;;18.40;1.00;;;;;;4922536;29;19934;-48
2023/10/14 10:24:16;;;;;;;;;;;18.40;1.00;;;;;;4922538;29;19931;-48
2023/10/14 10:27:02;;;;;;;;;;;18.40;1.00;;;;;;4926038;29;19928;-48
2023/10/14 10:29:33;;;;;;;;;;;18.50;1.00;;;;;;4918481;29;19927;-49
2023/10/14 10:32:11;;;;;;;;;;;18.50;1.00;;;;;;4914233;29;19927;-49
2023/10/14 10:34:57;;;;;;;;;;;18.50;1.00;;;;;;4924317;29;19927;-49
2023/10/14 10:37:27;;;;;;;;;;;18.50;1.00;;;;;;4938103;29;19943;-48
2023/10/14 10:39:54;;;;;;;;;;;18.50;1.00;;;;;;4921250;29;19931;-50
2023/10/14 10:42:21;;;;;;;;;;;18.50;1.00;;;;;;4926959;29;19930;-48
2023/10/14 10:44:48;;;;;;;;;;;18.50;1.00;;;;;;4921251;29;19927;-50
2023/10/14 10:47:16;;;;;;;;;;;18.50;1.00;;;;;;4924596;29;20415;-48
2023/10/14 10:49:49;;;;;;;;;;;18.60;1.00;;;;;;4930180;29;19931;-48
2023/10/14 10:52:16;;;;;;;;;;;18.60;1.00;;;;;;4930283;29;20012;-48
2023/10/14 10:54:44;;;;;;;;;;;18.60;1.00;;;;;;4928292;29;19979;-48
2023/10/14 10:57:11;;;;;;;;;;;18.60;1.00;;;;;;4924980;29;19926;-48
2023/10/14 10:59:39;;;;;;;;;;;18.60;1.00;;;;;;4937592;29;19926;-48
2023/10/14 11:02:09;;;;;;;;;;;18.60;1.00;;;;;;4919643;29;19943;-48
2023/10/14 11:04:41;;;;;;;;;;;18.60;1.00;;;;;;4927318;29;19933;-49
2023/10/14 11:07:11;;;;;;;;;;;18.60;1.00;;;;;;4927019;29;19931;-48
2023/10/14 11:09:41;;;;;;;;;;;18.60;1.00;;;;;;4908994;29;19933;-48
2023/10/14 11:12:11;;;;;;;;;;;18.60;1.00;;;;;;4926793;29;19933;-49
2023/10/14 11:14:38;;;;;;;;;;;18.60;1.00;;;;;;4924003;29;19982;-48
2023/10/14 11:17:06;;;;;;;;;;;18.60;1.00;;;;;;4925310;29;19927;-49
2023/10/14 11:19:33;;;;;;;;;;;18.60;1.00;;;;;;4923562;29;19933;-48
2023/10/14 11:22:01;;;;;;;;;;;18.60;1.00;;;;;;4928140;29;19931;-49
2023/10/14 11:24:30;;;;;;;;;;;18.60;1.00;;;;;;4923178;29;19986;-48
2023/10/14 11:26:57;;;;;;;;;;;18.60;1.00;;;;;;4926230;29;19938;-50
2023/10/14 11:29:25;;;;;;;;;;;18.60;1.00;;;;;;4922060;29;19983;-49
2023/10/14 11:31:53;;;;;;;;;;;18.70;1.00;;;;;;4925517;29;19931;-52
2023/10/14 11:34:20;;;;;;;;;;;18.70;1.00;;;;;;4932626;29;20346;-49
2023/10/14 11:36:48;;;;;;;;;;;18.60;1.00;;;;;;4923856;29;20492;-52
2023/10/14 11:39:16;;;;;;;;;;;18.70;1.00;;;;;;4927160;29;19931;-49
2023/10/14 11:41:43;;;;;;;;;;;18.70;1.00;;;;;;4922528;29;20305;-51
2023/10/14 11:44:10;;;;;;;;;;;18.70;1.00;;;;;;4925536;29;19927;-51
2023/10/14 11:46:39;;;;;;;;;;;18.70;1.00;;;;;;4922060;29;19936;-49
2023/10/14 11:49:10;;;;;;;;;;;18.70;1.00;;;;;;4926228;29;20006;-49
2023/10/14 11:51:43;;;;;;;;;;;18.70;1.00;;;;;;4930906;29;19927;-53
2023/10/14 11:54:11;;;;;;;;;;;18.70;1.00;;;;;;4933075;29;19926;-48
2023/10/14 11:56:42;;;;;;;;;;;18.70;1.00;;;;;;4932201;29;20033;-49
2023/10/14 11:59:09;;;;;;;;;;;18.60;1.00;;;;;;4935575;29;20010;-53
2023/10/14 12:01:36;;;;;;;;;;;18.60;1.00;;;;;;4926987;29;19927;-49
2023/10/14 12:04:03;;;;;;;;;;;18.60;1.00;;;;;;4932952;29;20033;-50
2023/10/14 12:06:34;;;;;;;;;;;18.60;1.00;;;;;;4931051;29;20018;-49
2023/10/14 12:09:07;;;;;;;;;;;18.60;1.00;;;;;;4922608;29;20022;-50
2023/10/14 12:11:41;;;;;;;;;;;18.60;1.00;;;;;;4926856;29;19927;-48
2023/10/14 12:14:10;;;;;;;;;;;18.60;1.00;;;;;;4931939;29;20017;-49
2023/10/14 12:16:38;;;;;;;;;;;18.60;1.00;;;;;;4924931;29;19938;-48
2023/10/14 12:19:07;;;;;;;;;;;18.60;1.00;;;;;;4927327;29;20435;-48
2023/10/14 12:21:34;;;;;;;;;;;18.60;1.00;;;;;;4933736;29;20381;-47
2023/10/14 12:24:03;;;;;;;;;;;18.60;1.00;;;;;;4928569;29;20013;-51
2023/10/14 12:26:33;;;;;;;;;;;18.60;1.00;;;;;;4925743;29;19927;-49
2023/10/14 12:29:09;;;;;;;;;;;18.60;1.00;;;;;;4925638;29;20084;-50
2023/10/14 12:31:38;;;;;;;;;;;18.60;1.00;;;;;;4933519;29;19927;-51
2023/10/14 12:34:08;;;;;;;;;;;18.60;1.00;;;;;;4923768;29;19973;-52
2023/10/14 12:36:40;;;;;;;;;;;18.60;1.00;;;;;;4931755;29;19930;-52
2023/10/14 12:39:33;;;;;;;;;;;18.60;1.00;;;;;;4930472;29;19950;-53
2023/10/14 12:42:02;;;;;;;;;;;18.60;1.00;;;;;;4917901;29;19927;-48
2023/10/14 12:44:29;;;;;;;;;;;18.50;1.00;;;;;;4927952;29;19927;-53
2023/10/14 12:46:56;;;;;;;;;;;18.50;1.00;;;;;;4921980;29;20345;-47
2023/10/14 12:49:23;;;;;;;;;;;18.50;1.00;;;;;;4928863;29;20061;-47
2023/10/14 12:51:56;;;;;;;;;;;18.50;1.00;;;;;;4928498;29;19973;-48
2023/10/14 12:54:29;;;;;;;;;;;18.50;1.00;;;;;;4933327;29;19934;-48
2023/10/14 12:56:56;;;;;;;;;;;18.50;1.00;;;;;;4925568;29;19927;-49
2023/10/14 12:59:24;;;;;;;;;;;18.50;1.00;;;;;;4928822;29;19927;-50
2023/10/14 13:01:58;;;;;;;;;;;18.50;1.00;;;;;;4931282;29;20009;-48
2023/10/14 13:04:27;;;;;;;;;;;18.50;1.00;;;;;;4926267;29;20014;-53
2023/10/14 13:06:54;;;;;;;;;;;18.50;1.00;;;;;;4934015;29;19927;-52
2023/10/14 13:09:26;;;;;;;;;;;18.50;1.00;;;;;;4921975;29;19934;-52
2023/10/14 13:11:56;;;;;;;;;;;18.50;1.00;;;;;;4926143;29;20551;-49
2023/10/14 13:14:26;;;;;;;;;;;18.50;1.00;;;;;;4921199;29;19928;-50
2023/10/14 13:16:58;;;;;;;;;;;18.50;1.00;;;;;;4926822;29;19948;-48
2023/10/14 13:19:32;;;;;;;;;;;18.50;1.00;;;;;;4923169;29;19927;-48
2023/10/14 13:21:59;;;;;;;;;;;18.50;1.00;;;;;;4920739;29;19927;-49
2023/10/14 13:24:26;;;;;;;;;;;18.50;1.00;;;;;;4922408;29;19935;-52
2023/10/14 13:26:53;;;;;;;;;;;18.40;1.00;;;;;;4924514;29;19957;-50
2023/10/14 13:29:20;;;;;;;;;;;18.50;1.00;;;;;;4921375;29;20289;-49
2023/10/14 13:31:49;;;;;;;;;;;18.40;1.00;;;;;;4924625;29;19927;-49
2023/10/14 13:34:18;;;;;;;;;;;18.40;1.00;;;;;;4919795;29;19927;-49
2023/10/14 13:36:45;;;;;;;;;;;18.40;1.00;;;;;;4922348;29;19950;-49
2023/10/14 13:39:23;;;;;;;;;;;18.40;1.00;;;;;;4916117;29;20357;-50
2023/10/14 13:41:51;;;;;;;;;;;18.40;1.00;;;;;;4914706;29;19946;-49
2023/10/14 13:44:17;;;;;;;;;;;18.40;1.00;;;;;;4918891;29;20018;-48
2023/10/14 13:46:44;;;;;;;;;;;18.40;1.00;;;;;;4932365;29;19927;-50
2023/10/14 13:49:14;;;;;;;;;;;18.40;1.00;;;;;;4932485;29;19927;-49
2023/10/14 13:51:41;;;;;;;;;;;18.40;1.00;;;;;;4930045;29;20355;-48
2023/10/14 13:54:08;;;;;;;;;;;18.40;1.00;;;;;;4923744;29;19950;-50
2023/10/14 13:56:34;;;;;;;;;;;18.40;1.00;;;;;;4919686;29;20400;-49
2023/10/14 13:59:04;;;;;;;;;;;18.40;1.00;;;;;;4922286;29;19974;-52
2023/10/14 14:01:31;;;;;;;;;;;18.50;1.00;;;;;;4924931;29;20002;-48
2023/10/14 14:03:58;;;;;;;;;;;18.50;1.00;;;;;;4920971;29;20417;-49
2023/10/14 14:06:26;;;;;;;;;;;18.50;1.00;;;;;;4925392;29;19991;-51
2023/10/14 14:08:53;;;;;;;;;;;18.50;1.00;;;;;;4923472;29;19978;-47
2023/10/14 14:11:23;;;;;;;;;;;18.50;1.00;;;;;;4927908;29;19934;-48
2023/10/14 14:13:50;;;;;;;;;;;18.50;1.00;;;;;;4923732;29;19931;-51
2023/10/14 14:16:18;;;;;;;;;;;18.50;1.00;;;;;;4928573;29;19945;-48
2023/10/14 14:18:49;;;;;;;;;;;18.60;1.00;;;;;;4932872;29;19931;-51
2023/10/14 14:21:16;;;;;;;;;;;18.60;1.00;;;;;;4922239;29;19935;-49
2023/10/14 14:23:43;;;;;;;;;;;18.60;1.00;;;;;;4933582;29;19927;-51
2023/10/14 14:26:17;;;;;;;;;;;18.60;1.00;;;;;;4922553;29;20005;-48
2023/10/14 14:28:44;;;;;;;;;;;18.50;1.00;;;;;;4930214;29;19945;-48
2023/10/14 14:31:12;;;;;;;;;;;18.50;1.00;;;;;;4929216;29;19926;-50
2023/10/14 14:33:43;;;;;;;;;;;18.50;1.00;;;;;;4935192;29;19965;-52
2023/10/14 14:36:10;;;;;;;;;;;18.50;1.00;;;;;;4928815;29;19931;-52
2023/10/14 14:38:40;;;;;;;;;;;18.50;1.00;;;;;;4922500;29;19931;-51
2023/10/14 14:41:07;;;;;;;;;;;18.50;1.00;;;;;;4927355;29;19934;-53
2023/10/14 14:43:35;;;;;;;;;;;18.50;1.00;;;;;;4928415;29;19959;-54
2023/10/14 14:46:05;;;;;;;;;;;18.50;1.00;;;;;;4934893;29;19927;-53
2023/10/14 14:48:32;;;;;;;;;;;18.60;1.00;;;;;;4933516;29;19931;-53
2023/10/14 14:50:59;;;;;;;;;;;18.50;1.00;;;;;;4926090;29;19930;-49
2023/10/14 14:53:26;;;;;;;;;;;18.50;1.00;;;;;;4923395;29;19983;-49
2023/10/14 14:55:52;;;;;;;;;;;18.60;1.00;;;;;;4932083;29;19933;-49
2023/10/14 14:58:19;;;;;;;;;;;18.50;1.00;;;;;;4932873;29;20014;-48
2023/10/14 15:00:48;;;;;;;;;;;18.60;1.00;;;;;;4927279;29;19927;-48
2023/10/14 15:03:20;;;;;;;;;;;18.50;1.00;;;;;;4930624;29;19926;-49
2023/10/14 15:05:49;;;;;;;;;;;18.50;1.00;;;;;;4925952;29;19946;-51
2023/10/14 15:08:18;;;;;;;;;;;18.50;1.00;;;;;;4933570;29;19927;-48
2023/10/14 15:10:45;;;;;;;;;;;18.50;1.00;;;;;;4926545;29;19966;-51
2023/10/14 15:13:13;;;;;;;;;;;18.60;1.00;;;;;;4931044;29;19981;-48
2023/10/14 15:15:41;;;;;;;;;;;18.50;1.00;;;;;;4935147;29;19931;-49